Time;durP1;ratioP1;P1;durP2;ratioP2;P2;SDS_P1;SDS_P2;PMS_P1;PMS_P2;Temp;Humidity;BMP_temperature;BMP_pressure;BME280_temperature;BME280_humidity;BME280_pressure;Samples;Min_cycle;Max_cycle;Signal;HPM_P1;HPM_P2
2023/07/23 00:02:06;;;;;;;3.83;2.08;;;20.90;92.80;;;;;;6113005;23;20031;-81
2023/07/23 00:04:33;;;;;;;5.38;2.00;;;21.00;93.20;;;;;;6143192;23;20025;-81
2023/07/23 00:07:02;;;;;;;8.45;2.72;;;20.90;93.30;;;;;;6195809;23;20021;-81
2023/07/23 00:09:37;;;;;;;5.50;2.60;;;20.80;93.30;;;;;;6180144;23;20017;-81
2023/07/23 00:12:11;;;;;;;2.60;1.60;;;20.90;93.80;;;;;;6153083;23;20847;-81
2023/07/23 00:14:39;;;;;;;4.65;1.90;;;21.00;93.40;;;;;;6174399;23;20063;-81
2023/07/23 00:17:08;;;;;;;4.00;2.30;;;20.80;93.90;;;;;;6140619;23;20048;-81
2023/07/23 00:19:36;;;;;;;5.05;2.75;;;20.80;93.90;;;;;;6140507;23;20084;-80
2023/07/23 00:22:04;;;;;;;4.35;1.83;;;20.70;93.50;;;;;;6145024;23;20104;-80
2023/07/23 00:24:37;;;;;;;3.30;1.70;;;20.70;93.70;;;;;;6145186;23;20013;-81
2023/07/23 00:27:06;;;;;;;2.85;1.60;;;20.60;93.30;;;;;;6145284;23;20029;-81
2023/07/23 00:29:34;;;;;;;3.95;1.85;;;20.80;93.10;;;;;;6144895;23;20076;-81
2023/07/23 00:32:03;;;;;;;4.93;2.25;;;20.60;93.30;;;;;;6143573;23;20041;-80
2023/07/23 00:34:34;;;;;;;5.15;2.45;;;20.60;93.50;;;;;;6124137;23;20529;-80
2023/07/23 00:37:02;;;;;;;5.50;2.38;;;20.60;94.10;;;;;;6231521;23;20062;-80
2023/07/23 00:39:31;;;;;;;6.43;1.90;;;20.50;94.60;;;;;;6209569;23;20074;-80
2023/07/23 00:41:58;;;;;;;4.15;2.53;;;20.60;94.90;;;;;;6202937;23;20091;-80
2023/07/23 00:44:28;;;;;;;6.85;2.80;;;20.50;95.00;;;;;;6230583;23;20050;-81
2023/07/23 00:46:58;;;;;;;5.40;3.17;;;20.70;95.40;;;;;;6226970;23;20031;-81
2023/07/23 00:49:26;;;;;;;5.22;2.58;;;20.40;95.70;;;;;;6264430;22;20027;-81
2023/07/23 00:52:00;;;;;;;5.25;2.45;;;20.40;95.90;;;;;;6265186;22;20082;-81
2023/07/23 00:54:28;;;;;;;10.57;4.38;;;20.40;96.40;;;;;;6229412;23;20047;-81
2023/07/23 00:56:56;;;;;;;4.78;3.25;;;20.30;97.10;;;;;;6231792;23;20021;-81
2023/07/23 00:59:24;;;;;;;5.25;2.60;;;20.20;97.20;;;;;;6227297;23;20422;-81
2023/07/23 01:01:52;;;;;;;6.28;3.58;;;20.30;96.90;;;;;;6222771;23;20024;-81
2023/07/23 01:04:20;;;;;;;5.03;2.75;;;20.00;96.20;;;;;;6171571;23;20017;-81
2023/07/23 01:06:48;;;;;;;4.85;2.58;;;20.20;95.80;;;;;;6139368;23;20029;-81
2023/07/23 01:09:20;;;;;;;6.22;3.25;;;20.10;95.70;;;;;;6111265;23;20462;-81
2023/07/23 01:11:50;;;;;;;4.70;3.20;;;20.20;95.90;;;;;;6106343;23;20457;-81
2023/07/23 01:14:21;;;;;;;4.70;2.65;;;20.10;95.70;;;;;;6081787;23;20112;-81
2023/07/23 01:16:49;;;;;;;5.28;2.90;;;20.10;95.90;;;;;;6080793;23;20018;-81
2023/07/23 01:19:41;;;;;;;4.80;2.55;;;20.00;95.90;;;;;;6100519;22;20021;31
2023/07/23 01:22:30;;;;;;;4.75;2.70;;;20.00;96.60;;;;;;6148290;23;20052;-84
2023/07/23 01:25:32;;;;;;;4.80;2.42;;;20.00;96.00;;;;;;6140709;23;20017;-84
2023/07/23 01:28:20;;;;;;;3.50;2.15;;;20.00;95.80;;;;;;6148289;23;20024;-84
2023/07/23 01:30:55;;;;;;;3.85;2.17;;;20.00;95.60;;;;;;6148267;23;20578;-84
2023/07/23 01:33:38;;;;;;;3.20;2.05;;;19.70;95.40;;;;;;6152005;23;20033;-83
2023/07/23 01:36:59;;;;;;;3.35;2.25;;;20.00;94.90;;;;;;6054389;23;20106;-82
2023/07/23 01:43:02;;;;;;;4.20;1.95;;;19.90;95.10;;;;;;6055657;23;20023;-82
2023/07/23 01:45:35;;;;;;;2.70;1.73;;;20.00;94.80;;;;;;6004704;23;20023;-83
2023/07/23 01:48:09;;;;;;;3.10;1.80;;;19.80;94.70;;;;;;6056382;23;20027;-82
2023/07/23 01:51:10;;;;;;;3.10;1.85;;;19.40;95.00;;;;;;6050454;23;20032;-82
2023/07/23 01:53:56;;;;;;;4.30;1.85;;;19.80;95.00;;;;;;6088153;23;20862;-82
2023/07/23 01:56:25;;;;;;;3.60;2.13;;;19.80;95.30;;;;;;6154848;23;20029;-82
2023/07/23 01:58:55;;;;;;;5.05;2.15;;;19.80;95.50;;;;;;6155354;23;20103;-82
2023/07/23 02:01:29;;;;;;;3.55;2.08;;;19.70;95.40;;;;;;6155770;23;20383;-82
2023/07/23 02:04:02;;;;;;;2.95;2.28;;;19.70;95.50;;;;;;6155521;23;20017;-82
2023/07/23 02:06:32;;;;;;;5.63;2.85;;;19.70;95.40;;;;;;6153769;23;20424;-82
2023/07/23 02:12:10;;;;;;;3.72;2.13;;;19.70;95.80;;;;;;6154911;23;20021;-82
2023/07/23 02:14:41;;;;;;;4.18;1.88;;;19.60;95.50;;;;;;6155940;23;20028;-82
2023/07/23 02:17:32;;;;;;;2.78;1.88;;;19.60;95.40;;;;;;6155818;23;20017;-82
2023/07/23 02:20:27;;;;;;;;;;;;;;;;;;;;;
2023/07/23 02:23:20;;;;;;;4.32;1.98;;;19.50;96.10;;;;;;6212210;23;20111;-83
2023/07/23 02:26:03;;;;;;;4.43;1.85;;;19.20;96.30;;;;;;6184733;23;20059;-83
2023/07/23 02:28:42;;;;;;;3.83;1.88;;;19.50;96.70;;;;;;6184689;23;20017;-83
2023/07/23 02:31:39;;;;;;;;;;;;;;;;;;;;;
2023/07/23 02:34:21;;;;;;;5.28;1.65;;;19.40;96.50;;;;;;6211172;23;20624;-83
2023/07/23 02:37:08;;;;;;;;;;;;;;;;;;;;;
2023/07/23 02:40:02;;;;;;;;;;;;;;;;;;;;;
2023/07/23 02:42:30;;;;;;;3.53;2.00;;;19.40;97.10;;;;;;6183671;23;20575;-83
2023/07/23 02:45:00;;;;;;;4.00;2.25;;;19.30;97.20;;;;;;6184284;23;20031;-83
2023/07/23 02:47:28;;;;;;;3.78;2.28;;;19.80;97.60;;;;;;6184923;23;20390;-83
2023/07/23 02:49:57;;;;;;;2.38;1.75;;;19.30;97.70;;;;;;6183851;23;20020;-83
2023/07/23 02:52:24;;;;;;;4.05;2.25;;;19.30;97.70;;;;;;6183675;23;20103;-83
2023/07/23 02:54:52;;;;;;;4.95;1.90;;;19.30;97.40;;;;;;6185671;23;20017;-84
2023/07/23 02:57:19;;;;;;;3.50;2.00;;;19.30;97.40;;;;;;6184488;23;20039;-84
2023/07/23 02:59:52;;;;;;;2.80;2.03;;;19.30;97.50;;;;;;6185142;23;20548;-84
2023/07/23 03:02:23;;;;;;;3.95;1.88;;;19.30;97.90;;;;;;6184800;23;20025;-84
2023/07/23 03:05:09;;;;;;;5.10;2.20;;;19.30;97.80;;;;;;6163165;23;20020;-84
2023/07/23 03:07:55;;;;;;;;;;;;;;;;;;;;;
2023/07/23 03:10:49;;;;;;;4.00;1.95;;;19.20;98.30;;;;;;6208269;23;20021;-84
2023/07/23 03:13:40;;;;;;;3.30;1.95;;;19.20;98.20;;;;;;6035883;23;20027;-83
2023/07/23 03:16:26;;;;;;;6.45;1.98;;;19.30;99.00;;;;;;5994713;23;20023;-83
2023/07/23 03:18:53;;;;;;;5.18;2.28;;;19.30;99.70;;;;;;6036548;23;20429;-82
2023/07/23 03:21:21;;;;;;;4.63;1.92;;;19.20;99.40;;;;;;6032187;23;20023;-81
2023/07/23 03:23:48;;;;;;;4.10;2.20;;;19.20;99.40;;;;;;6034122;23;20035;-83
2023/07/23 03:26:16;;;;;;;3.67;1.85;;;19.20;99.20;;;;;;6056601;23;20141;-82
2023/07/23 03:28:43;;;;;;;4.07;1.98;;;19.10;99.20;;;;;;6032895;23;20110;-83
2023/07/23 03:31:11;;;;;;;4.55;2.60;;;19.20;99.30;;;;;;6108718;23;20757;-82
2023/07/23 03:33:44;;;;;;;6.35;2.28;;;19.20;99.70;;;;;;6182512;23;20028;-83
2023/07/23 03:36:19;;;;;;;4.40;2.15;;;19.10;99.90;;;;;;6180764;23;20024;-83
2023/07/23 03:38:56;;;;;;;4.22;1.83;;;19.20;99.90;;;;;;6181698;23;20895;-83
2023/07/23 03:41:46;;;;;;;3.92;1.75;;;19.20;99.90;;;;;;6183637;23;20043;-83
2023/07/23 03:44:21;;;;;;;4.55;2.38;;;19.20;99.90;;;;;;6182118;23;20030;-83
2023/07/23 03:47:15;;;;;;;5.65;2.70;;;19.20;99.90;;;;;;6181573;23;20075;-82
2023/07/23 03:49:45;;;;;;;3.45;2.00;;;19.20;99.90;;;;;;6157551;23;20055;-83
2023/07/23 03:52:13;;;;;;;4.80;2.60;;;19.20;99.90;;;;;;6181679;23;20028;-82
2023/07/23 03:54:42;;;;;;;4.47;2.53;;;19.30;99.90;;;;;;6182649;23;20027;-83
2023/07/23 03:57:09;;;;;;;3.72;2.47;;;19.30;99.90;;;;;;6181817;23;20028;-82
2023/07/23 03:59:43;;;;;;;3.75;2.20;;;19.30;99.90;;;;;;6180920;23;20032;-82
2023/07/23 04:02:11;;;;;;;4.85;1.92;;;19.20;99.90;;;;;;6178788;23;20016;-82
2023/07/23 04:04:40;;;;;;;3.63;2.03;;;19.30;99.90;;;;;;6180338;23;20079;-81
2023/07/23 04:07:08;;;;;;;6.10;2.53;;;19.30;99.90;;;;;;6178268;23;20024;-82
2023/07/23 04:09:37;;;;;;;4.47;2.17;;;19.40;99.90;;;;;;6206739;23;20724;-82
2023/07/23 04:12:08;;;;;;;4.53;1.90;;;19.50;99.90;;;;;;6178544;23;20024;-82
2023/07/23 04:14:43;;;;;;;5.57;2.65;;;19.60;99.90;;;;;;6179427;23;20111;-81
2023/07/23 04:17:11;;;;;;;13.93;3.15;;;19.60;99.90;;;;;;6179407;23;20593;-82
2023/07/23 04:19:56;;;;;;;3.72;2.60;;;19.60;99.90;;;;;;6178027;23;20020;-82
2023/07/23 04:22:23;;;;;;;3.97;2.38;;;19.60;99.90;;;;;;6152214;23;20495;-82
2023/07/23 04:24:51;;;;;;;3.17;2.28;;;19.60;99.90;;;;;;6128636;23;20790;-82
2023/07/23 04:27:18;;;;;;;4.43;2.38;;;19.50;99.90;;;;;;6149219;23;20021;-81
2023/07/23 04:29:57;;;;;;;4.38;2.20;;;19.50;99.90;;;;;;6127497;23;20391;-81
2023/07/23 04:32:29;;;;;;;3.25;2.00;;;19.40;99.90;;;;;;6128059;23;20024;-82
2023/07/23 04:34:56;;;;;;;4.00;2.00;;;19.50;99.90;;;;;;6126961;23;20025;-83
2023/07/23 04:37:56;;;;;;;8.10;2.30;;;19.60;99.90;;;;;;6141806;23;20023;-82
2023/07/23 04:40:38;;;;;;;3.72;1.83;;;19.60;99.90;;;;;;6155321;23;20024;-82
2023/07/23 04:43:09;;;;;;;3.90;1.97;;;19.70;99.90;;;;;;6145128;23;20251;-82
2023/07/23 04:45:39;;;;;;;3.50;2.22;;;19.70;99.90;;;;;;6149622;23;20266;-82
2023/07/23 04:48:10;;;;;;;4.50;1.88;;;19.80;99.90;;;;;;6123957;23;20518;-82
2023/07/23 04:50:38;;;;;;;3.20;2.30;;;19.90;99.90;;;;;;6173827;23;20052;-81
2023/07/23 04:53:05;;;;;;;2.72;2.10;;;19.90;99.90;;;;;;6148862;23;20021;-81
2023/07/23 04:55:35;;;;;;;3.08;1.95;;;20.00;99.90;;;;;;6125325;23;20108;-81
2023/07/23 04:58:07;;;;;;;4.50;2.20;;;20.00;99.90;;;;;;6150567;23;20350;-81
2023/07/23 05:00:35;;;;;;;4.88;2.30;;;20.20;99.90;;;;;;6125462;23;20423;-81
2023/07/23 05:03:03;;;;;;;4.15;1.75;;;20.20;99.90;;;;;;6124177;23;20099;-81
2023/07/23 05:05:32;;;;;;;5.47;1.98;;;20.00;99.90;;;;;;6149881;23;20785;-81
2023/07/23 05:07:59;;;;;;;3.42;2.25;;;20.40;99.50;;;;;;6123147;23;20080;-81
2023/07/23 05:10:31;;;;;;;4.20;2.22;;;20.50;99.30;;;;;;6126181;23;20025;-82
2023/07/23 05:13:04;;;;;;;6.07;2.75;;;20.50;98.80;;;;;;6151177;23;20017;-81
2023/07/23 05:15:36;;;;;;;4.10;2.25;;;20.60;99.40;;;;;;6175122;23;20040;-81
2023/07/23 05:18:04;;;;;;;3.78;2.15;;;20.80;99.30;;;;;;6149678;23;20025;-81
2023/07/23 05:20:37;;;;;;;3.50;2.05;;;20.90;99.00;;;;;;6153170;23;20029;-80
2023/07/23 05:23:05;;;;;;;3.80;1.70;;;21.00;98.70;;;;;;6150935;23;20502;-81
2023/07/23 05:26:09;;;;;;;2.92;1.73;;;21.20;98.40;;;;;;6151943;23;20021;-82
2023/07/23 05:28:36;;;;;;;4.32;2.22;;;21.20;98.40;;;;;;6150811;23;20060;-82
2023/07/23 05:31:12;;;;;;;5.47;2.47;;;21.40;98.40;;;;;;6124886;23;20048;-81
2023/07/23 05:33:44;;;;;;;4.60;2.30;;;21.50;98.40;;;;;;6176311;23;20352;-82
2023/07/23 05:36:17;;;;;;;3.50;2.28;;;21.70;98.60;;;;;;6150497;23;20021;-82
2023/07/23 05:38:54;;;;;;;4.78;2.53;;;21.70;98.50;;;;;;6177675;23;20025;-82
2023/07/23 05:41:40;;;;;;;5.40;2.45;;;22.00;97.70;;;;;;6156508;23;20048;-81
2023/07/23 05:44:09;;;;;;;4.45;2.40;;;22.10;97.60;;;;;;6151113;23;20024;-80
2023/07/23 05:46:36;;;;;;;5.10;2.90;;;21.60;96.60;;;;;;6127134;23;20738;-82
2023/07/23 05:49:11;;;;;;;5.95;3.17;;;22.30;96.80;;;;;;6151512;23;20021;-81
2023/07/23 05:51:46;;;;;;;5.75;2.50;;;22.30;96.60;;;;;;6129085;23;20028;-82
2023/07/23 05:54:13;;;;;;;4.03;2.25;;;22.50;95.90;;;;;;6149789;23;20112;-82
2023/07/23 05:56:43;;;;;;;3.17;1.80;;;22.50;95.40;;;;;;6126283;23;20080;-83
2023/07/23 05:59:10;;;;;;;5.03;1.75;;;22.70;95.10;;;;;;6126615;23;20025;-82
2023/07/23 06:01:38;;;;;;;3.45;1.88;;;22.80;94.50;;;;;;6127803;23;20021;-83
2023/07/23 06:04:10;;;;;;;3.65;1.77;;;22.90;94.20;;;;;;6150836;23;20447;-82
2023/07/23 06:06:37;;;;;;;4.53;1.75;;;23.00;93.10;;;;;;6149629;23;20035;-81
2023/07/23 06:09:08;;;;;;;4.13;2.17;;;23.10;93.70;;;;;;6152517;23;20021;-82
2023/07/23 06:12:02;;;;;;;3.92;1.50;;;23.20;93.30;;;;;;6131625;23;20024;-83
2023/07/23 06:14:29;;;;;;;2.53;1.45;;;23.40;93.00;;;;;;6130237;23;20151;-82
2023/07/23 06:16:57;;;;;;;3.53;1.60;;;23.40;91.60;;;;;;6145228;23;20021;-83
2023/07/23 06:19:24;;;;;;;3.20;1.45;;;23.60;92.00;;;;;;6152474;23;20029;-83
2023/07/23 06:21:57;;;;;;;2.55;1.10;;;23.70;91.70;;;;;;6179349;23;20020;-80
2023/07/23 06:24:24;;;;;;;3.10;1.60;;;23.90;90.90;;;;;;6207118;23;20032;-82
2023/07/23 06:26:52;;;;;;;2.33;1.25;;;24.00;90.70;;;;;;6206790;23;20748;-82
2023/07/23 06:29:26;;;;;;;3.35;1.58;;;24.10;90.00;;;;;;6207611;23;20440;-82
2023/07/23 06:31:54;;;;;;;2.80;1.20;;;24.30;90.50;;;;;;6207080;23;20013;-83
2023/07/23 06:34:29;;;;;;;3.97;1.52;;;24.30;90.20;;;;;;6183676;23;20020;-81
2023/07/23 06:37:05;;;;;;;4.18;1.33;;;24.40;89.10;;;;;;6205521;23;20507;-81
2023/07/23 06:39:34;;;;;;;4.10;1.55;;;24.50;88.20;;;;;;6180850;23;20075;-81
2023/07/23 06:42:14;;;;;;;6.43;1.98;;;24.60;87.50;;;;;;6205796;23;20020;-81
2023/07/23 06:45:07;;;;;;;3.30;1.38;;;24.70;87.60;;;;;;6208230;23;20104;-82
2023/07/23 06:47:47;;;;;;;3.33;1.63;;;24.70;88.50;;;;;;6182845;23;20147;-84
2023/07/23 06:53:49;;;;;;;3.10;1.60;;;25.00;84.80;;;;;;6177888;23;20027;-83
2023/07/23 07:01:28;;;;;;;3.20;1.30;;;25.20;83.00;;;;;;6096302;23;20947;-87
2023/07/23 07:03:58;;;;;;;2.22;1.13;;;25.30;84.00;;;;;;6180824;23;20017;-79
2023/07/23 07:06:25;;;;;;;2.50;1.40;;;25.40;83.90;;;;;;6159275;23;20027;-79
2023/07/23 07:08:52;;;;;;;3.97;1.55;;;25.50;84.30;;;;;;6185639;23;20027;-82
2023/07/23 07:11:19;;;;;;;2.55;1.20;;;25.50;82.70;;;;;;6158207;23;20028;-82
2023/07/23 07:13:46;;;;;;;3.42;1.25;;;25.40;80.90;;;;;;6163231;23;20024;-79
2023/07/23 07:16:14;;;;;;;4.50;1.90;;;25.50;81.30;;;;;;6161883;23;20029;-78
2023/07/23 07:18:41;;;;;;;2.83;1.48;;;25.70;83.70;;;;;;6163360;23;20092;-78
2023/07/23 07:21:08;;;;;;;3.25;1.67;;;25.80;82.20;;;;;;6163461;23;20103;-79
2023/07/23 07:23:35;;;;;;;5.07;1.38;;;25.80;81.30;;;;;;6163369;23;20048;-81
2023/07/23 07:26:02;;;;;;;2.03;1.40;;;25.90;80.10;;;;;;6156144;23;20364;-81
2023/07/23 07:28:32;;;;;;;2.83;1.10;;;26.00;80.60;;;;;;6206022;23;20021;-80
2023/07/23 07:31:01;;;;;;;2.17;1.15;;;26.10;79.90;;;;;;6159618;23;20025;-79
2023/07/23 07:33:28;;;;;;;2.90;1.60;;;26.20;80.00;;;;;;6186157;23;20025;-79
2023/07/23 07:35:57;;;;;;;3.13;1.33;;;26.30;79.00;;;;;;6162664;23;20665;-81
2023/07/23 07:38:26;;;;;;;6.05;1.63;;;26.40;78.80;;;;;;6183186;23;20526;-78
2023/07/23 07:40:56;;;;;;;3.65;1.58;;;26.40;77.50;;;;;;6160102;23;20017;-80
2023/07/23 07:43:23;;;;;;;4.07;1.45;;;26.20;77.60;;;;;;6188331;23;20072;-78
2023/07/23 07:45:58;;;;;;;3.08;1.83;;;26.40;79.30;;;;;;6163794;23;20028;-78
2023/07/23 07:48:29;;;;;;;2.40;1.52;;;26.50;75.90;;;;;;6181071;23;20723;-78
2023/07/23 07:51:02;;;;;;;2.85;1.67;;;26.60;74.40;;;;;;6164740;23;20448;-81
2023/07/23 07:53:30;;;;;;;3.65;1.63;;;26.70;73.80;;;;;;6190512;23;20016;-80
2023/07/23 07:55:58;;;;;;;2.97;1.63;;;26.70;74.70;;;;;;6161131;23;20023;-81
2023/07/23 07:58:25;;;;;;;4.72;1.75;;;26.70;72.50;;;;;;6162165;23;20409;-80
2023/07/23 08:00:56;;;;;;;4.30;1.70;;;26.80;72.60;;;;;;6188267;23;20028;-80
2023/07/23 08:03:28;;;;;;;4.07;1.30;;;26.90;72.80;;;;;;6139480;23;20021;-78
2023/07/23 08:05:58;;;;;;;2.72;1.00;;;26.90;72.50;;;;;;6126236;23;20361;-79
2023/07/23 08:08:27;;;;;;;3.83;1.35;;;27.00;73.20;;;;;;6132513;23;20072;-78
2023/07/23 08:10:56;;;;;;;2.90;1.70;;;27.00;70.90;;;;;;6149640;23;20100;-78
2023/07/23 08:13:24;;;;;;;2.97;1.70;;;27.10;72.80;;;;;;6155259;23;20076;-80
2023/07/23 08:15:53;;;;;;;2.90;1.20;;;27.20;72.10;;;;;;6129262;23;20036;-79
2023/07/23 08:18:23;;;;;;;2.47;1.13;;;27.10;70.60;;;;;;6156361;23;20761;-79
2023/07/23 08:20:50;;;;;;;3.10;1.20;;;27.20;70.60;;;;;;6132384;23;20076;-77
2023/07/23 08:23:18;;;;;;;2.25;1.30;;;27.10;69.30;;;;;;6156754;23;20072;-79
2023/07/23 08:25:49;;;;;;;3.35;1.30;;;27.20;69.70;;;;;;6124446;23;20111;-80
2023/07/23 08:28:22;;;;;;;2.28;1.05;;;27.00;69.80;;;;;;6131881;23;20017;-81
2023/07/23 08:30:50;;;;;;;2.53;1.20;;;27.30;71.10;;;;;;6131352;23;20083;-78
2023/07/23 08:33:18;;;;;;;2.80;1.15;;;27.40;69.50;;;;;;6132081;23;20446;-77
2023/07/23 08:35:46;;;;;;;2.55;1.08;;;27.50;70.20;;;;;;6127739;23;20032;-77
2023/07/23 08:38:15;;;;;;;3.50;1.10;;;27.50;70.70;;;;;;6147574;23;20724;-76
2023/07/23 08:40:45;;;;;;;2.33;0.98;;;27.60;71.90;;;;;;6119646;23;20024;-79
2023/07/23 08:43:53;;;;;;;2.30;1.30;;;27.60;70.40;;;;;;6127041;23;20025;-79
2023/07/23 08:46:25;;;;;;;3.03;1.38;;;27.70;70.40;;;;;;6145771;23;20677;-80
2023/07/23 08:48:56;;;;;;;3.05;1.00;;;27.60;68.50;;;;;;6129717;23;20083;-79
2023/07/23 08:51:25;;;;;;;3.47;1.30;;;27.70;67.90;;;;;;6155483;23;20032;-77
2023/07/23 08:53:53;;;;;;;2.75;1.38;;;27.70;68.70;;;;;;6125285;23;20555;-77
2023/07/23 08:56:20;;;;;;;4.57;1.17;;;27.80;68.00;;;;;;6125381;23;20123;-82
2023/07/23 08:58:49;;;;;;;2.20;1.00;;;27.80;68.90;;;;;;6153367;23;20037;-76
2023/07/23 09:01:17;;;;;;;2.05;1.20;;;27.80;68.40;;;;;;6149802;23;20334;-77
2023/07/23 09:03:44;;;;;;;3.22;1.23;;;27.80;68.70;;;;;;6182370;23;20799;-78
2023/07/23 09:06:12;;;;;;;5.28;1.55;;;28.00;68.40;;;;;;6158324;23;20051;-77
2023/07/23 09:08:39;;;;;;;2.15;0.82;;;27.90;67.90;;;;;;6181671;23;20043;-78
2023/07/23 09:11:10;;;;;;;2.53;1.30;;;28.20;69.50;;;;;;6160038;23;20055;-77
2023/07/23 09:13:37;;;;;;;1.98;0.80;;;28.20;68.30;;;;;;6161632;23;20048;-78
2023/07/23 09:16:05;;;;;;;2.28;1.10;;;28.10;67.80;;;;;;6162042;23;20017;-78
2023/07/23 09:18:40;;;;;;;1.80;1.00;;;28.10;67.80;;;;;;6162583;23;20540;-78
2023/07/23 09:21:09;;;;;;;2.17;1.27;;;28.10;68.10;;;;;;6188144;23;20055;-79
2023/07/23 09:23:36;;;;;;;3.50;0.90;;;28.30;67.10;;;;;;6214432;23;20508;-78
2023/07/23 09:26:08;;;;;;;1.95;1.08;;;28.30;66.40;;;;;;6161653;23;20017;-77
2023/07/23 09:28:35;;;;;;;4.25;1.45;;;28.30;66.00;;;;;;6187119;23;20040;-78
2023/07/23 09:31:02;;;;;;;4.30;1.20;;;28.30;64.80;;;;;;6186930;23;20020;-77
2023/07/23 09:33:34;;;;;;;2.17;1.15;;;28.30;65.50;;;;;;6161227;23;20563;-77
2023/07/23 09:36:05;;;;;;;1.83;0.80;;;28.20;64.70;;;;;;6161260;23;20516;-78
2023/07/23 09:38:34;;;;;;;2.28;1.05;;;28.20;65.10;;;;;;6187135;23;20028;-80
2023/07/23 09:41:01;;;;;;;2.83;1.27;;;27.90;64.50;;;;;;6162904;23;20507;-78
2023/07/23 09:43:29;;;;;;;2.45;1.05;;;28.00;65.30;;;;;;6179758;23;20044;-78
2023/07/23 09:45:57;;;;;;;3.63;1.20;;;28.20;65.70;;;;;;6161128;23;20024;-80
2023/07/23 09:48:26;;;;;;;3.60;1.00;;;28.40;65.70;;;;;;6160437;23;20017;-78
2023/07/23 09:50:58;;;;;;;3.17;1.30;;;28.30;63.90;;;;;;6178810;23;20363;-79
2023/07/23 09:53:29;;;;;;;2.20;0.98;;;28.30;64.60;;;;;;6158271;23;20415;-76
2023/07/23 09:55:56;;;;;;;2.20;1.00;;;28.20;65.00;;;;;;6158990;23;20029;-78
2023/07/23 09:58:25;;;;;;;3.13;1.73;;;28.10;63.90;;;;;;6185053;23;20074;-76
2023/07/23 10:00:53;;;;;;;2.80;1.00;;;28.20;65.10;;;;;;6178836;23;20048;-78
2023/07/23 10:03:21;;;;;;;2.85;1.65;;;28.30;64.50;;;;;;6181803;23;20013;-77
2023/07/23 10:05:49;;;;;;;2.75;1.42;;;28.10;64.60;;;;;;6158532;23;20017;-76
2023/07/23 10:08:20;;;;;;;2.15;1.02;;;27.80;65.40;;;;;;6182788;23;20017;-78
2023/07/23 10:10:47;;;;;;;2.20;1.00;;;27.90;64.80;;;;;;6178848;23;20847;-76
2023/07/23 10:13:14;;;;;;;2.78;1.10;;;28.10;65.20;;;;;;6159086;23;20536;-77
2023/07/23 10:15:42;;;;;;;2.65;1.00;;;28.10;63.40;;;;;;6186067;23;20025;-77
2023/07/23 10:18:10;;;;;;;2.80;1.20;;;28.10;63.50;;;;;;6182997;23;20350;-77
2023/07/23 10:20:38;;;;;;;2.80;1.50;;;28.10;61.90;;;;;;6184928;23;20017;-77
2023/07/23 10:23:06;;;;;;;2.55;1.13;;;28.20;62.90;;;;;;6184284;23;20063;-80
2023/07/23 10:25:35;;;;;;;2.55;1.13;;;28.30;64.30;;;;;;6184768;23;20031;-78
2023/07/23 10:28:10;;;;;;;3.08;1.20;;;28.50;63.50;;;;;;6162363;23;20051;-79
2023/07/23 10:30:38;;;;;;;7.30;2.88;;;28.60;65.20;;;;;;6183386;23;20024;-81
2023/07/23 10:33:11;;;;;;;2.50;1.15;;;28.40;62.70;;;;;;6159901;23;20048;-78
2023/07/23 10:35:52;;;;;;;3.78;1.58;;;28.50;64.10;;;;;;6183585;23;20346;-78
2023/07/23 10:38:39;;;;;;;2.78;1.42;;;28.60;63.10;;;;;;6160036;23;20053;-77
2023/07/23 10:41:07;;;;;;;2.63;1.42;;;28.60;63.20;;;;;;6158925;23;20102;-78
2023/07/23 10:43:45;;;;;;;2.85;1.17;;;28.60;63.10;;;;;;6183790;23;20060;-77
2023/07/23 10:46:21;;;;;;;6.22;1.30;;;28.60;61.60;;;;;;6186533;23;20067;-77
2023/07/23 10:48:55;;;;;;;3.50;1.50;;;28.50;63.40;;;;;;6183210;23;20017;-78
2023/07/23 10:51:23;;;;;;;3.22;1.90;;;28.30;63.50;;;;;;6179959;23;20077;-76
2023/07/23 10:54:02;;;;;;;2.13;1.10;;;28.40;64.30;;;;;;6183490;23;20025;-75
2023/07/23 10:56:41;;;;;;;2.35;1.33;;;28.20;64.40;;;;;;6184598;23;20068;-77
2023/07/23 10:59:21;;;;;;;4.25;1.45;;;27.80;64.10;;;;;;6183452;23;20055;-78
2023/07/23 11:01:51;;;;;;;3.95;1.10;;;27.60;65.60;;;;;;6157889;23;20033;-76
2023/07/23 11:04:25;;;;;;;2.63;1.40;;;27.50;65.30;;;;;;6134457;23;20347;-78
2023/07/23 11:07:04;;;;;;;3.20;1.30;;;28.00;64.80;;;;;;6134052;23;20104;-79
2023/07/23 11:09:37;;;;;;;4.57;1.95;;;28.30;65.00;;;;;;6159069;23;20021;-78
2023/07/23 11:12:05;;;;;;;3.45;0.93;;;28.50;65.20;;;;;;6134429;23;20047;-79
2023/07/23 11:14:36;;;;;;;3.13;1.50;;;28.50;62.50;;;;;;6134045;23;20017;-78
2023/07/23 11:17:04;;;;;;;2.42;1.08;;;28.30;64.00;;;;;;6157414;23;20044;-76
2023/07/23 11:19:32;;;;;;;3.17;1.27;;;28.30;63.50;;;;;;6157438;23;20123;-77
2023/07/23 11:22:02;;;;;;;1.92;0.88;;;28.30;64.10;;;;;;6158067;23;20013;-79
2023/07/23 11:24:30;;;;;;;2.25;1.20;;;28.20;62.80;;;;;;6159650;23;20100;-77
2023/07/23 11:27:01;;;;;;;2.40;1.00;;;28.30;63.10;;;;;;6159472;23;20013;-77
2023/07/23 11:29:29;;;;;;;2.10;1.02;;;28.40;62.70;;;;;;6159122;23;20040;-77
2023/07/23 11:32:02;;;;;;;2.35;1.20;;;28.50;62.50;;;;;;6136351;23;20091;-79
2023/07/23 11:34:30;;;;;;;2.13;1.05;;;28.50;62.00;;;;;;6157465;23;20024;-77
2023/07/23 11:36:57;;;;;;;1.85;0.73;;;28.60;62.10;;;;;;6157947;23;20872;-76
2023/07/23 11:39:24;;;;;;;2.33;1.00;;;28.50;61.60;;;;;;6157788;23;20017;-77
2023/07/23 11:41:53;;;;;;;1.65;0.60;;;28.50;62.10;;;;;;6158752;23;20083;-77
2023/07/23 11:44:21;;;;;;;4.63;1.20;;;28.50;62.30;;;;;;6157973;23;20441;-77
2023/07/23 11:46:49;;;;;;;2.63;1.25;;;28.50;61.80;;;;;;6157328;23;20067;-80
2023/07/23 11:49:17;;;;;;;3.22;1.20;;;28.60;62.70;;;;;;6130820;23;20462;-80
2023/07/23 11:51:44;;;;;;;4.07;1.85;;;28.60;62.40;;;;;;6131227;23;20040;-79
2023/07/23 11:54:13;;;;;;;3.05;1.25;;;28.70;62.30;;;;;;6157415;23;20048;-79
2023/07/23 11:56:45;;;;;;;1.55;0.95;;;28.70;61.40;;;;;;6153308;23;20032;-80
2023/07/23 11:59:15;;;;;;;2.40;1.00;;;28.70;63.10;;;;;;6149744;23;20393;-78
2023/07/23 12:01:45;;;;;;;3.15;1.13;;;28.80;61.70;;;;;;6127138;23;20017;-77
2023/07/23 12:04:13;;;;;;;2.33;1.10;;;28.70;61.60;;;;;;6154660;23;20100;-76
2023/07/23 12:06:41;;;;;;;3.75;1.27;;;28.70;62.10;;;;;;6155123;23;20049;-79
2023/07/23 12:09:10;;;;;;;1.80;0.90;;;28.80;61.40;;;;;;6157346;23;20013;-75
2023/07/23 12:11:39;;;;;;;2.15;0.93;;;28.80;62.00;;;;;;6130707;23;20056;-76
2023/07/23 12:14:08;;;;;;;2.85;0.70;;;28.70;61.50;;;;;;6126097;23;20044;-77
2023/07/23 12:16:43;;;;;;;4.60;1.13;;;28.70;60.90;;;;;;6181989;23;20069;-77
2023/07/23 12:19:15;;;;;;;2.63;1.15;;;28.60;61.40;;;;;;6149028;23;20100;-78
2023/07/23 12:21:45;;;;;;;2.03;1.02;;;28.80;61.60;;;;;;6131915;23;20353;-77
2023/07/23 12:24:18;;;;;;;2.10;1.08;;;28.80;60.00;;;;;;6155052;23;20049;-80
2023/07/23 12:26:48;;;;;;;6.13;1.58;;;28.80;59.90;;;;;;6155231;23;20521;-78
2023/07/23 12:29:16;;;;;;;2.17;1.33;;;28.90;59.60;;;;;;6156265;23;20025;-80
2023/07/23 12:31:48;;;;;;;6.28;2.10;;;28.90;59.30;;;;;;6156698;23;20787;-81
2023/07/23 12:34:16;;;;;;;5.07;1.98;;;28.80;59.60;;;;;;6156767;23;20056;-79
2023/07/23 12:36:43;;;;;;;3.75;1.20;;;29.00;60.40;;;;;;6134206;23;20056;-83
2023/07/23 12:39:11;;;;;;;2.95;1.10;;;29.10;59.90;;;;;;6130419;23;20508;-80
2023/07/23 12:41:39;;;;;;;3.70;1.17;;;29.00;60.30;;;;;;6150266;23;20013;-80
2023/07/23 12:44:07;;;;;;;1.85;1.17;;;29.00;60.50;;;;;;6131960;23;20354;-79
2023/07/23 12:46:35;;;;;;;2.47;0.98;;;29.00;60.90;;;;;;6156798;23;20029;-78
2023/07/23 12:49:02;;;;;;;3.92;1.15;;;28.90;61.20;;;;;;6131924;23;20386;-79
2023/07/23 12:51:30;;;;;;;2.33;1.23;;;29.00;61.90;;;;;;6130187;23;20112;-79
2023/07/23 12:53:58;;;;;;;3.53;1.17;;;29.10;61.60;;;;;;6157218;23;20075;-81
2023/07/23 12:56:25;;;;;;;2.65;1.60;;;29.20;58.90;;;;;;6157408;23;20029;-80
2023/07/23 12:58:53;;;;;;;3.42;1.23;;;29.10;59.70;;;;;;6127175;23;20031;-80
2023/07/23 13:01:20;;;;;;;3.95;1.25;;;29.00;57.40;;;;;;6124824;23;20410;-80
2023/07/23 13:03:48;;;;;;;2.05;1.02;;;29.00;59.80;;;;;;6179495;23;20025;-80
2023/07/23 13:06:16;;;;;;;3.38;1.10;;;29.10;59.80;;;;;;6155546;23;20021;-80
2023/07/23 13:08:44;;;;;;;2.53;1.20;;;29.10;58.60;;;;;;6178351;23;20027;-79
2023/07/23 13:11:12;;;;;;;3.35;1.40;;;29.10;57.80;;;;;;6181580;23;20071;-79
2023/07/23 13:13:39;;;;;;;3.85;1.63;;;29.10;60.80;;;;;;6177114;23;20040;-80
2023/07/23 13:16:08;;;;;;;2.55;1.38;;;29.20;61.80;;;;;;6153078;23;20025;-80
2023/07/23 13:18:37;;;;;;;3.38;1.60;;;29.20;61.40;;;;;;6154494;23;20021;-80
2023/07/23 13:21:04;;;;;;;3.88;0.98;;;29.10;60.60;;;;;;6174493;23;20021;-79
2023/07/23 13:23:32;;;;;;;3.72;1.40;;;29.10;61.20;;;;;;6181935;23;20021;-78
2023/07/23 13:26:00;;;;;;;2.53;1.10;;;29.10;60.90;;;;;;6180548;23;20052;-79
2023/07/23 13:28:28;;;;;;;1.65;1.00;;;29.10;61.20;;;;;;6181321;23;20013;-80
2023/07/23 13:30:56;;;;;;;3.58;1.48;;;29.20;61.40;;;;;;6179088;23;20029;-79
2023/07/23 13:33:23;;;;;;;3.50;1.42;;;29.30;61.70;;;;;;6180930;23;20025;-81